Time;durP1;ratioP1;P1;durP2;ratioP2;P2;SDS_P1;SDS_P2;PMS_P1;PMS_P2;Temp;Humidity;BMP_temperature;BMP_pressure;BME280_temperature;BME280_humidity;BME280_pressure;Samples;Min_cycle;Max_cycle;Signal;HPM_P1;HPM_P2
2022/10/10 00:01:05;;;;;;;;;;;29.20;99.90;;;;;;5032034;28;19917;-57
2022/10/10 00:03:31;;;;;;;;;;;29.20;99.90;;;;;;5031052;28;19947;-56
2022/10/10 00:05:56;;;;;;;;;;;29.20;99.90;;;;;;5031710;28;19905;-56
2022/10/10 00:08:22;;;;;;;;;;;29.10;99.90;;;;;;5031498;28;19901;-58
2022/10/10 00:10:47;;;;;;;;;;;29.20;99.90;;;;;;5031619;28;20381;-57
2022/10/10 00:13:13;;;;;;;;;;;29.10;99.90;;;;;;5031213;28;19917;-58
2022/10/10 00:15:39;;;;;;;;;;;29.10;99.90;;;;;;5031438;28;20288;-56
2022/10/10 00:18:04;;;;;;;;;;;29.10;99.90;;;;;;5031798;28;20361;-57
2022/10/10 00:20:30;;;;;;;;;;;29.10;99.90;;;;;;5031375;28;20237;-58
2022/10/10 00:22:55;;;;;;;;;;;29.10;99.90;;;;;;5031449;28;19966;-57
2022/10/10 00:25:21;;;;;;;;;;;29.10;99.90;;;;;;5031330;28;19905;-57
2022/10/10 00:27:47;;;;;;;;;;;29.10;99.90;;;;;;5046594;28;19909;-57
2022/10/10 00:30:12;;;;;;;;;;;29.00;99.90;;;;;;5031255;28;20407;-58
2022/10/10 00:32:38;;;;;;;;;;;29.00;99.90;;;;;;5031199;28;19913;-56
2022/10/10 00:35:04;;;;;;;;;;;29.00;99.90;;;;;;5031527;28;20371;-57
2022/10/10 00:37:30;;;;;;;;;;;29.00;99.90;;;;;;5031270;28;20008;-56
2022/10/10 00:39:55;;;;;;;;;;;29.00;99.90;;;;;;5031295;28;19992;-58
2022/10/10 00:42:21;;;;;;;;;;;29.00;99.90;;;;;;5031084;28;19921;-56
2022/10/10 00:45:07;;;;;;;;;;;29.00;99.90;;;;;;5031432;28;19905;-58
2022/10/10 00:47:32;;;;;;;;;;;28.90;99.90;;;;;;5031428;28;19912;-58
2022/10/10 00:49:58;;;;;;;;;;;29.00;99.90;;;;;;5031425;28;19905;-57
2022/10/10 00:52:24;;;;;;;;;;;28.90;99.90;;;;;;5030992;28;19913;-58
2022/10/10 00:54:50;;;;;;;;;;;28.90;99.90;;;;;;5031082;28;19905;-57
2022/10/10 00:57:15;;;;;;;;;;;28.90;99.90;;;;;;5031115;28;19987;-57
2022/10/10 00:59:42;;;;;;;;;;;28.90;99.90;;;;;;5031544;28;20398;-58
2022/10/10 01:02:07;;;;;;;;;;;28.90;99.90;;;;;;5031162;28;19920;-57
2022/10/10 01:04:43;;;;;;;;;;;28.90;99.90;;;;;;5031189;28;19905;-57
2022/10/10 01:07:15;;;;;;;;;;;28.90;99.90;;;;;;5030885;28;20360;-58
2022/10/10 01:09:41;;;;;;;;;;;28.80;99.90;;;;;;5029684;28;20050;-57
2022/10/10 01:12:07;;;;;;;;;;;28.90;99.90;;;;;;5031159;28;20375;-57
2022/10/10 01:14:36;;;;;;;;;;;28.80;99.90;;;;;;5032598;28;19988;-57
2022/10/10 01:17:19;;;;;;;;;;;28.80;99.90;;;;;;5034465;28;20468;-57
2022/10/10 01:20:14;;;;;;;;;;;28.80;99.90;;;;;;5034354;28;19902;-56
2022/10/10 01:22:57;;;;;;;;;;;28.80;99.90;;;;;;5014714;28;19910;-57
2022/10/10 01:25:29;;;;;;;;;;;28.80;99.90;;;;;;5034312;28;19909;-58
2022/10/10 01:28:13;;;;;;;;;;;28.80;99.90;;;;;;5034297;28;19928;-58
2022/10/10 01:30:40;;;;;;;;;;;28.70;99.90;;;;;;5034463;28;19906;-57
2022/10/10 01:33:09;;;;;;;;;;;28.70;99.90;;;;;;5034316;28;19920;-57
2022/10/10 01:35:41;;;;;;;;;;;28.70;99.90;;;;;;5034453;28;19905;-59
2022/10/10 01:38:13;;;;;;;;;;;28.70;99.90;;;;;;5034408;28;20258;-59
2022/10/10 01:40:38;;;;;;;;;;;28.70;99.90;;;;;;5034314;28;19905;-61
2022/10/10 01:43:06;;;;;;;;;;;28.70;99.90;;;;;;5033962;28;19912;-58
2022/10/10 01:45:31;;;;;;;;;;;28.70;99.90;;;;;;5034102;28;19912;-58
2022/10/10 01:47:59;;;;;;;;;;;28.60;99.90;;;;;;5033940;28;19905;-59
2022/10/10 01:50:25;;;;;;;;;;;28.70;99.90;;;;;;5034042;28;19905;-58
2022/10/10 01:52:50;;;;;;;;;;;28.60;99.90;;;;;;5033963;28;19913;-59
2022/10/10 01:55:16;;;;;;;;;;;28.60;99.90;;;;;;5033975;28;19905;-59
2022/10/10 01:58:00;;;;;;;;;;;28.60;99.90;;;;;;5033934;28;20261;-58
2022/10/10 02:00:26;;;;;;;;;;;28.60;99.90;;;;;;5034296;28;20281;-59
2022/10/10 02:02:55;;;;;;;;;;;28.60;99.90;;;;;;5033816;28;19905;-59
2022/10/10 02:05:27;;;;;;;;;;;28.60;99.90;;;;;;5033823;28;19944;-59
2022/10/10 02:07:55;;;;;;;;;;;28.60;99.90;;;;;;5033512;28;20050;-59
2022/10/10 02:10:22;;;;;;;;;;;28.60;99.90;;;;;;5033534;28;19913;-58
2022/10/10 02:12:48;;;;;;;;;;;28.60;99.90;;;;;;5033522;28;20349;-58
2022/10/10 02:15:16;;;;;;;;;;;28.60;99.90;;;;;;5033736;28;19995;-58
2022/10/10 02:17:43;;;;;;;;;;;28.60;99.90;;;;;;5033423;28;19905;-59
2022/10/10 02:20:10;;;;;;;;;;;28.60;99.90;;;;;;5033570;28;19921;-59
2022/10/10 02:22:38;;;;;;;;;;;28.60;99.90;;;;;;5033333;28;19960;-60
2022/10/10 02:25:04;;;;;;;;;;;28.50;99.90;;;;;;5033178;28;19905;-59
2022/10/10 02:27:47;;;;;;;;;;;28.50;99.90;;;;;;5032935;28;19916;-60
2022/10/10 02:30:13;;;;;;;;;;;28.50;99.90;;;;;;5033149;28;19912;-58
2022/10/10 02:32:43;;;;;;;;;;;28.50;99.90;;;;;;5033343;28;19913;-58
2022/10/10 02:35:11;;;;;;;;;;;28.50;99.90;;;;;;5033304;28;19974;-58
2022/10/10 02:37:38;;;;;;;;;;;28.50;99.90;;;;;;5033126;28;19912;-57
2022/10/10 02:40:06;;;;;;;;;;;28.50;99.90;;;;;;5033159;28;19905;-58
2022/10/10 02:42:32;;;;;;;;;;;28.50;99.90;;;;;;5033139;28;20368;-57
2022/10/10 02:44:58;;;;;;;;;;;28.50;99.90;;;;;;5032842;28;20272;-57
2022/10/10 02:47:24;;;;;;;;;;;28.50;99.90;;;;;;5032781;28;19905;-57
2022/10/10 02:49:49;;;;;;;;;;;28.50;99.90;;;;;;5032902;28;19919;-58
2022/10/10 02:52:15;;;;;;;;;;;28.40;99.90;;;;;;5032551;28;19913;-58
2022/10/10 02:54:41;;;;;;;;;;;28.40;99.90;;;;;;5032877;28;19905;-58
2022/10/10 02:57:07;;;;;;;;;;;28.40;99.90;;;;;;5032680;28;19991;-57
2022/10/10 02:59:32;;;;;;;;;;;28.40;99.90;;;;;;5045068;22;19893;-54
2022/10/10 03:01:58;;;;;;;;;;;28.40;99.90;;;;;;5032498;28;19913;-53
2022/10/10 03:04:24;;;;;;;;;;;28.40;99.90;;;;;;5032449;28;19905;-53
2022/10/10 03:06:49;;;;;;;;;;;28.40;99.90;;;;;;5032403;28;19905;-54
2022/10/10 03:09:15;;;;;;;;;;;28.40;99.90;;;;;;5032311;28;19905;-53
2022/10/10 03:11:41;;;;;;;;;;;28.40;99.90;;;;;;5032377;28;19919;-54
2022/10/10 03:14:06;;;;;;;;;;;28.40;99.90;;;;;;5032238;28;19912;-54
2022/10/10 03:16:32;;;;;;;;;;;28.40;99.90;;;;;;5032150;28;19936;-54
2022/10/10 03:18:57;;;;;;;;;;;28.40;99.90;;;;;;5031964;28;19905;-54
2022/10/10 03:21:23;;;;;;;;;;;28.30;99.90;;;;;;5032047;28;19999;-54
2022/10/10 03:23:49;;;;;;;;;;;28.40;99.90;;;;;;5031967;28;19996;-55
2022/10/10 03:26:14;;;;;;;;;;;28.30;99.90;;;;;;5032225;28;20387;-54
2022/10/10 03:28:40;;;;;;;;;;;28.30;99.90;;;;;;5032074;28;19912;-54
2022/10/10 03:31:05;;;;;;;;;;;28.30;99.90;;;;;;5031870;28;19909;-54
2022/10/10 03:33:32;;;;;;;;;;;28.30;99.90;;;;;;5032296;28;19917;-54
2022/10/10 03:35:58;;;;;;;;;;;28.30;99.90;;;;;;5032025;28;20401;-54
2022/10/10 03:38:23;;;;;;;;;;;28.30;99.90;;;;;;5030887;28;20000;-54
2022/10/10 03:40:49;;;;;;;;;;;28.30;99.90;;;;;;5031941;28;19911;-54
2022/10/10 03:43:15;;;;;;;;;;;28.30;99.90;;;;;;5031771;28;19912;-54
2022/10/10 03:45:44;;;;;;;;;;;28.30;99.90;;;;;;5031629;28;20321;-54
2022/10/10 03:48:10;;;;;;;;;;;28.30;99.90;;;;;;5031712;28;19912;-54
2022/10/10 03:50:36;;;;;;;;;;;28.30;99.90;;;;;;5031739;28;19913;-54
2022/10/10 03:53:02;;;;;;;;;;;28.30;99.90;;;;;;5031594;28;19919;-54
2022/10/10 03:55:28;;;;;;;;;;;28.30;99.90;;;;;;5031545;28;19905;-54
2022/10/10 03:57:53;;;;;;;;;;;28.20;99.90;;;;;;5031576;28;19958;-54
2022/10/10 04:00:19;;;;;;;;;;;28.20;99.90;;;;;;5044232;22;19929;-59
2022/10/10 04:02:44;;;;;;;;;;;28.30;99.90;;;;;;5032331;28;19905;-58
2022/10/10 04:05:10;;;;;;;;;;;28.30;99.90;;;;;;5031879;28;19977;-58
2022/10/10 04:07:36;;;;;;;;;;;28.20;99.90;;;;;;5031605;28;19908;-58
2022/10/10 04:10:01;;;;;;;;;;;28.20;99.90;;;;;;5031665;28;19905;-60
2022/10/10 04:12:27;;;;;;;;;;;28.20;99.90;;;;;;5031511;28;19921;-60
2022/10/10 04:14:52;;;;;;;;;;;28.20;99.90;;;;;;5031629;28;19927;-58
2022/10/10 04:17:18;;;;;;;;;;;28.20;99.90;;;;;;5031561;28;19959;-60
2022/10/10 04:19:44;;;;;;;;;;;28.20;99.90;;;;;;5031658;28;20308;-58
2022/10/10 04:22:09;;;;;;;;;;;28.20;99.90;;;;;;5031479;28;19967;-60
2022/10/10 04:24:35;;;;;;;;;;;28.10;99.90;;;;;;5031402;28;19905;-59
2022/10/10 04:27:00;;;;;;;;;;;28.10;99.90;;;;;;5031307;28;19905;-59
2022/10/10 04:29:26;;;;;;;;;;;28.10;99.90;;;;;;5031442;28;19905;-59
2022/10/10 04:31:51;;;;;;;;;;;28.10;99.90;;;;;;5031322;28;19917;-59
2022/10/10 04:34:17;;;;;;;;;;;28.10;99.90;;;;;;5031517;28;19912;-61
2022/10/10 04:36:43;;;;;;;;;;;28.10;99.90;;;;;;5031286;28;19959;-59
2022/10/10 04:39:08;;;;;;;;;;;28.10;99.90;;;;;;5031206;28;19909;-59
2022/10/10 04:41:34;;;;;;;;;;;28.00;99.90;;;;;;5031293;28;19909;-59
2022/10/10 04:43:59;;;;;;;;;;;28.10;99.90;;;;;;5031258;28;20452;-57
2022/10/10 04:46:25;;;;;;;;;;;28.10;99.90;;;;;;5031276;28;19988;-59
2022/10/10 04:48:51;;;;;;;;;;;28.10;99.90;;;;;;5031830;28;19905;-59
2022/10/10 04:51:16;;;;;;;;;;;28.00;99.90;;;;;;5035207;28;20344;-59
2022/10/10 04:53:42;;;;;;;;;;;28.00;99.90;;;;;;5035064;28;20015;-59
2022/10/10 04:56:07;;;;;;;;;;;28.00;99.90;;;;;;5035065;28;19909;-59
2022/10/10 04:58:33;;;;;;;;;;;28.00;99.90;;;;;;5034869;28;20356;-59
2022/10/10 05:00:59;;;;;;;;;;;28.00;99.90;;;;;;5034748;28;19924;-59
2022/10/10 05:03:24;;;;;;;;;;;28.00;99.90;;;;;;5034793;28;19906;-59
2022/10/10 05:05:50;;;;;;;;;;;28.00;99.90;;;;;;5034812;28;19901;-60
2022/10/10 05:08:17;;;;;;;;;;;28.00;99.90;;;;;;5035022;28;19912;-59
2022/10/10 05:10:44;;;;;;;;;;;27.90;99.90;;;;;;5034757;28;19905;-58
2022/10/10 05:13:10;;;;;;;;;;;28.00;99.90;;;;;;5034684;28;20033;-58
2022/10/10 05:15:37;;;;;;;;;;;28.00;99.90;;;;;;5034607;28;19905;-60
2022/10/10 05:18:03;;;;;;;;;;;27.90;99.90;;;;;;5049675;28;19912;-58
2022/10/10 05:20:29;;;;;;;;;;;27.90;99.90;;;;;;5034449;28;19954;-59
2022/10/10 05:22:55;;;;;;;;;;;27.90;99.90;;;;;;5033059;28;19908;-57
2022/10/10 05:25:20;;;;;;;;;;;27.90;99.90;;;;;;5034544;28;19912;-57
2022/10/10 05:27:46;;;;;;;;;;;27.90;99.90;;;;;;5034465;28;20435;-57
2022/10/10 05:30:12;;;;;;;;;;;27.90;99.90;;;;;;5034280;28;19909;-59
2022/10/10 05:32:38;;;;;;;;;;;27.90;99.90;;;;;;5034053;28;19929;-58
2022/10/10 05:35:04;;;;;;;;;;;27.90;99.90;;;;;;5034178;28;19905;-58
2022/10/10 05:37:30;;;;;;;;;;;27.90;99.90;;;;;;5034084;28;19905;-59
2022/10/10 05:39:56;;;;;;;;;;;27.90;99.90;;;;;;5034059;28;20363;-59
2022/10/10 05:42:21;;;;;;;;;;;27.90;99.90;;;;;;5034190;28;19955;-59
2022/10/10 05:44:47;;;;;;;;;;;27.90;99.90;;;;;;5034067;28;19913;-59
2022/10/10 05:47:13;;;;;;;;;;;27.90;99.90;;;;;;5033950;28;20137;-59
2022/10/10 05:49:39;;;;;;;;;;;27.90;99.90;;;;;;5033674;28;19993;-59
2022/10/10 05:52:04;;;;;;;;;;;27.90;99.90;;;;;;5033813;28;20003;-58
2022/10/10 05:54:30;;;;;;;;;;;27.80;99.90;;;;;;5033772;28;19905;-59
2022/10/10 05:56:55;;;;;;;;;;;27.80;99.90;;;;;;5033690;28;19912;-58
2022/10/10 05:59:21;;;;;;;;;;;27.80;99.90;;;;;;5033599;28;20341;-58
2022/10/10 06:01:47;;;;;;;;;;;27.80;99.90;;;;;;5032640;28;19913;-58
2022/10/10 06:04:12;;;;;;;;;;;27.80;99.90;;;;;;5032366;28;19913;-58
2022/10/10 06:06:38;;;;;;;;;;;27.80;99.90;;;;;;5033403;28;19909;-58
2022/10/10 06:09:03;;;;;;;;;;;27.80;99.90;;;;;;5033317;28;20003;-58
2022/10/10 06:11:29;;;;;;;;;;;27.80;99.90;;;;;;5033304;28;19912;-58
2022/10/10 06:13:55;;;;;;;;;;;27.80;99.90;;;;;;5033468;28;19912;-58
2022/10/10 06:16:25;;;;;;;;;;;27.80;99.90;;;;;;5033480;28;19992;-58
2022/10/10 06:18:50;;;;;;;;;;;27.80;99.90;;;;;;5033429;28;19980;-58
2022/10/10 06:21:16;;;;;;;;;;;27.80;99.90;;;;;;5033198;28;19913;-57
2022/10/10 06:23:43;;;;;;;;;;;27.70;99.90;;;;;;5033049;28;19967;-56
2022/10/10 06:26:08;;;;;;;;;;;27.70;99.90;;;;;;5033243;28;20381;-57
2022/10/10 06:28:34;;;;;;;;;;;27.70;99.90;;;;;;5033053;28;19913;-57
2022/10/10 06:31:01;;;;;;;;;;;27.70;99.90;;;;;;5033091;28;19905;-56
2022/10/10 06:33:26;;;;;;;;;;;27.70;99.90;;;;;;5032813;28;19943;-58
2022/10/10 06:35:52;;;;;;;;;;;27.70;99.90;;;;;;5033130;28;19905;-58
2022/10/10 06:38:18;;;;;;;;;;;27.70;99.90;;;;;;5032829;28;20275;-57
2022/10/10 06:40:44;;;;;;;;;;;27.70;99.90;;;;;;5032789;28;20331;-57
2022/10/10 06:43:11;;;;;;;;;;;27.70;99.90;;;;;;5032736;28;19905;-59
2022/10/10 06:45:37;;;;;;;;;;;27.70;99.90;;;;;;5032835;28;19905;-59
2022/10/10 06:48:02;;;;;;;;;;;27.70;99.90;;;;;;5032805;28;19905;-59
2022/10/10 06:50:29;;;;;;;;;;;27.70;99.90;;;;;;5032577;28;19905;-57
2022/10/10 06:52:54;;;;;;;;;;;27.70;99.90;;;;;;5032745;28;20015;-58
2022/10/10 06:55:20;;;;;;;;;;;27.70;99.90;;;;;;5032467;28;20201;-59
2022/10/10 06:57:45;;;;;;;;;;;27.70;99.90;;;;;;5032451;28;20495;-58
2022/10/10 07:00:11;;;;;;;;;;;27.70;99.90;;;;;;5031062;28;19923;-57
2022/10/10 07:02:40;;;;;;;;;;;27.70;99.90;;;;;;5032283;28;20352;-59
2022/10/10 07:05:06;;;;;;;;;;;27.70;99.90;;;;;;5032479;28;20022;-58
2022/10/10 07:07:32;;;;;;;;;;;27.70;99.90;;;;;;5032417;28;19921;-58
2022/10/10 07:09:57;;;;;;;;;;;27.70;99.90;;;;;;5032365;28;19913;-58
2022/10/10 07:12:23;;;;;;;;;;;27.70;99.90;;;;;;5032019;28;20406;-58
2022/10/10 07:14:48;;;;;;;;;;;27.70;99.90;;;;;;5032132;28;19916;-57
2022/10/10 07:17:14;;;;;;;;;;;27.60;99.90;;;;;;5032258;28;19909;-58
2022/10/10 07:19:39;;;;;;;;;;;27.60;99.90;;;;;;5032124;28;20174;-58
2022/10/10 07:22:05;;;;;;;;;;;27.60;99.90;;;;;;5032230;28;19906;-59
2022/10/10 07:24:31;;;;;;;;;;;27.60;99.90;;;;;;5032045;28;19911;-58
2022/10/10 07:26:56;;;;;;;;;;;27.60;99.90;;;;;;5032144;28;19905;-57
2022/10/10 07:29:23;;;;;;;;;;;27.60;99.90;;;;;;5032092;28;19943;-57
2022/10/10 07:31:49;;;;;;;;;;;27.60;99.90;;;;;;5031799;28;19975;-58
2022/10/10 07:34:14;;;;;;;;;;;27.60;99.90;;;;;;5031916;28;19905;-59
2022/10/10 07:36:40;;;;;;;;;;;27.60;99.90;;;;;;5031865;28;19905;-58
2022/10/10 07:39:06;;;;;;;;;;;27.60;99.90;;;;;;5031695;28;20357;-59
2022/10/10 07:41:32;;;;;;;;;;;27.60;99.90;;;;;;5031737;28;20334;-58
2022/10/10 07:43:57;;;;;;;;;;;27.60;99.90;;;;;;5031996;28;20012;-57
2022/10/10 07:46:23;;;;;;;;;;;27.60;99.90;;;;;;5031699;28;19992;-58
2022/10/10 07:48:49;;;;;;;;;;;27.60;99.90;;;;;;5031567;28;19947;-58
2022/10/10 07:51:15;;;;;;;;;;;27.60;99.90;;;;;;5030171;28;20352;-59
2022/10/10 07:53:42;;;;;;;;;;;27.70;99.90;;;;;;5031409;28;20020;-57
2022/10/10 07:56:09;;;;;;;;;;;27.60;99.90;;;;;;5031490;28;20059;-57
2022/10/10 07:58:34;;;;;;;;;;;27.60;99.90;;;;;;5031375;28;19917;-59
2022/10/10 08:01:01;;;;;;;;;;;27.60;99.90;;;;;;5031241;28;19931;-57
2022/10/10 08:03:26;;;;;;;;;;;27.60;99.90;;;;;;5031604;28;20389;-58
2022/10/10 08:05:52;;;;;;;;;;;27.60;99.90;;;;;;5031365;28;19905;-57
2022/10/10 08:08:17;;;;;;;;;;;27.60;99.90;;;;;;5031353;28;20102;-59
2022/10/10 08:10:43;;;;;;;;;;;27.70;99.90;;;;;;5031493;28;19912;-58
2022/10/10 08:13:09;;;;;;;;;;;27.60;99.90;;;;;;5031325;28;19960;-59
2022/10/10 08:15:37;;;;;;;;;;;27.70;99.90;;;;;;5031380;28;20431;-57
2022/10/10 08:18:03;;;;;;;;;;;27.70;99.90;;;;;;5031411;28;19967;-57
2022/10/10 08:20:28;;;;;;;;;;;27.70;99.90;;;;;;5031575;28;19905;-57
2022/10/10 08:22:54;;;;;;;;;;;27.70;99.90;;;;;;5031458;28;19913;-58
2022/10/10 08:25:19;;;;;;;;;;;27.70;99.90;;;;;;5034537;28;19912;-58
2022/10/10 08:27:45;;;;;;;;;;;27.80;99.90;;;;;;5035461;28;20011;-58
2022/10/10 08:30:11;;;;;;;;;;;27.80;99.90;;;;;;5035358;28;19921;-58
2022/10/10 08:32:37;;;;;;;;;;;27.80;99.90;;;;;;5035149;28;19960;-58
2022/10/10 08:35:02;;;;;;;;;;;27.80;99.90;;;;;;5035253;28;20351;-60
2022/10/10 08:37:28;;;;;;;;;;;27.80;99.90;;;;;;5035450;28;19905;-58
2022/10/10 08:39:54;;;;;;;;;;;27.80;99.90;;;;;;5035094;28;20450;-59
2022/10/10 08:42:29;;;;;;;;;;;27.90;99.90;;;;;;5035161;28;19959;-58
2022/10/10 08:44:58;;;;;;;;;;;27.80;99.90;;;;;;5035140;28;19937;-59
2022/10/10 08:47:28;;;;;;;;;;;27.90;99.90;;;;;;5034943;28;19905;-59
2022/10/10 08:50:06;;;;;;;;;;;27.90;99.90;;;;;;5034818;28;19905;-60
2022/10/10 08:52:32;;;;;;;;;;;27.90;99.90;;;;;;5035282;28;20933;-60
2022/10/10 08:55:00;;;;;;;;;;;27.90;99.90;;;;;;5035244;28;19954;-58
2022/10/10 08:57:30;;;;;;;;;;;27.90;99.90;;;;;;5034859;28;19912;-59
2022/10/10 09:00:00;;;;;;;;;;;27.90;99.90;;;;;;5034695;28;19924;-60
2022/10/10 09:02:32;;;;;;;;;;;27.90;99.90;;;;;;5034816;28;19912;-61
2022/10/10 09:04:57;;;;;;;;;;;28.00;99.90;;;;;;5034929;28;19906;-59
2022/10/10 09:07:30;;;;;;;;;;;28.00;99.90;;;;;;5034936;28;19916;-60
2022/10/10 09:10:09;;;;;;;;;;;28.00;99.90;;;;;;5033376;28;19905;-60
2022/10/10 09:12:53;;;;;;;;;;;28.00;99.90;;;;;;5034522;28;19917;-59
2022/10/10 09:15:18;;;;;;;;;;;28.00;99.90;;;;;;5034456;28;19905;-60
2022/10/10 09:17:47;;;;;;;;;;;28.00;99.90;;;;;;5034729;28;20370;-60
2022/10/10 09:20:16;;;;;;;;;;;28.00;99.90;;;;;;5034403;28;19905;-59
2022/10/10 09:23:02;;;;;;;;;;;28.00;99.90;;;;;;5034262;28;19959;-59
2022/10/10 09:25:34;;;;;;;;;;;28.10;99.90;;;;;;5034055;28;20389;-60
2022/10/10 09:28:04;;;;;;;;;;;28.10;99.90;;;;;;5034442;28;19905;-60
2022/10/10 09:30:32;;;;;;;;;;;28.10;99.90;;;;;;5034325;28;19905;-59
2022/10/10 09:33:06;;;;;;;;;;;28.10;99.90;;;;;;5034175;28;19921;-55
2022/10/10 09:35:34;;;;;;;;;;;28.10;99.90;;;;;;5034410;28;19912;-55
2022/10/10 09:38:20;;;;;;;;;;;28.10;99.90;;;;;;5034466;28;19905;-56
2022/10/10 09:40:48;;;;;;;;;;;28.10;99.90;;;;;;5030028;28;19988;-55
2022/10/10 09:43:16;;;;;;;;;;;28.10;99.90;;;;;;5034009;28;19912;-55
2022/10/10 09:45:51;;;;;;;;;;;28.10;99.90;;;;;;5034047;28;20052;-56
2022/10/10 09:48:17;;;;;;;;;;;28.10;99.90;;;;;;5033833;28;20276;-56
2022/10/10 09:50:43;;;;;;;;;;;28.10;99.90;;;;;;5033966;28;19912;-55
2022/10/10 09:53:12;;;;;;;;;;;28.10;99.90;;;;;;5033869;28;19913;-55
2022/10/10 09:55:38;;;;;;;;;;;28.10;99.90;;;;;;5033744;28;20261;-55
2022/10/10 09:58:19;;;;;;;;;;;28.20;99.90;;;;;;5032829;28;19912;-56
2022/10/10 10:00:44;;;;;;;;;;;28.20;99.90;;;;;;5032263;28;19917;-58
2022/10/10 10:03:17;;;;;;;;;;;28.20;99.90;;;;;;5033654;28;19923;-57
2022/10/10 10:05:44;;;;;;;;;;;28.20;99.90;;;;;;5033548;28;19956;-58
2022/10/10 10:08:22;;;;;;;;;;;28.20;99.90;;;;;;5033509;28;20307;-57
2022/10/10 10:10:47;;;;;;;;;;;28.20;99.90;;;;;;5033698;28;19906;-57
2022/10/10 10:13:14;;;;;;;;;;;28.20;99.90;;;;;;5033366;28;19920;-58
2022/10/10 10:15:46;;;;;;;;;;;28.30;99.90;;;;;;5033403;28;20043;-58
2022/10/10 10:18:20;;;;;;;;;;;28.30;99.90;;;;;;5033404;28;19905;-58
2022/10/10 10:20:47;;;;;;;;;;;28.30;99.90;;;;;;5033267;28;19905;-58
2022/10/10 10:23:30;;;;;;;;;;;28.40;99.90;;;;;;5033261;28;19905;-58
2022/10/10 10:26:00;;;;;;;;;;;28.40;99.90;;;;;;5033128;28;19909;-58
2022/10/10 10:28:26;;;;;;;;;;;28.40;99.90;;;;;;5033251;28;19905;-59
2022/10/10 10:30:53;;;;;;;;;;;28.40;99.90;;;;;;5031823;28;20003;-58
2022/10/10 10:33:37;;;;;;;;;;;28.50;99.90;;;;;;5032983;28;19917;-58
2022/10/10 10:36:16;;;;;;;;;;;28.50;99.90;;;;;;5033127;28;19992;-58
2022/10/10 10:38:48;;;;;;;;;;;28.50;99.90;;;;;;5032836;28;20050;-59
2022/10/10 10:41:32;;;;;;;;;;;28.50;99.90;;;;;;5032830;28;19912;-58
2022/10/10 10:44:03;;;;;;;;;;;28.50;99.90;;;;;;5032953;28;20125;-58
2022/10/10 10:46:46;;;;;;;;;;;28.50;99.90;;;;;;5032305;28;19905;-58
2022/10/10 10:49:19;;;;;;;;;;;28.50;99.90;;;;;;5032670;28;19905;-59
2022/10/10 10:52:14;;;;;;;;;;;28.60;99.90;;;;;;5032537;28;20007;-59
2022/10/10 10:54:58;;;;;;;;;;;28.50;99.90;;;;;;5027676;28;19963;-58
2022/10/10 10:57:50;;;;;;;;;;;28.50;99.90;;;;;;5032542;28;19977;-58
2022/10/10 11:00:17;;;;;;;;;;;28.50;99.90;;;;;;5032291;28;20074;-58
2022/10/10 11:02:58;;;;;;;;;;;28.50;99.90;;;;;;5032461;28;19905;-57
2022/10/10 11:05:29;;;;;;;;;;;28.50;99.90;;;;;;5032520;28;19913;-57
2022/10/10 11:08:01;;;;;;;;;;;28.50;99.90;;;;;;5032548;28;19909;-56
2022/10/10 11:10:43;;;;;;;;;;;28.50;99.90;;;;;;5032372;28;19912;-57
2022/10/10 11:13:09;;;;;;;;;;;28.50;99.90;;;;;;5032130;28;20344;-56
2022/10/10 11:15:45;;;;;;;;;;;28.50;99.90;;;;;;5032372;28;19947;-56
2022/10/10 11:18:12;;;;;;;;;;;28.50;99.90;;;;;;5032291;28;20322;-56
2022/10/10 11:20:38;;;;;;;;;;;28.50;99.90;;;;;;5032477;28;20001;-55
2022/10/10 11:23:04;;;;;;;;;;;28.50;99.90;;;;;;5047352;28;19952;-55
2022/10/10 11:25:32;;;;;;;;;;;28.50;99.90;;;;;;5031996;28;19905;-55
2022/10/10 11:28:00;;;;;;;;;;;28.50;99.90;;;;;;5032075;28;19912;-57
2022/10/10 11:30:29;;;;;;;;;;;28.50;99.90;;;;;;5032074;28;19928;-57
2022/10/10 11:33:05;;;;;;;;;;;28.50;99.90;;;;;;5031710;28;19913;-57
2022/10/10 11:36:01;;;;;;;;;;;28.50;99.90;;;;;;5031919;28;19908;-57
2022/10/10 11:38:32;;;;;;;;;;;28.60;99.90;;;;;;5026790;28;19905;-58
2022/10/10 11:40:58;;;;;;;;;;;28.60;99.90;;;;;;5031769;28;19967;-57
2022/10/10 11:43:27;;;;;;;;;;;28.60;99.90;;;;;;5031849;28;19941;-57
2022/10/10 11:45:56;;;;;;;;;;;28.50;99.90;;;;;;5031652;28;19905;-57
2022/10/10 11:48:26;;;;;;;;;;;28.60;99.90;;;;;;5031642;28;19905;-57
2022/10/10 11:50:55;;;;;;;;;;;28.60;99.90;;;;;;5031591;28;19980;-58
2022/10/10 11:53:32;;;;;;;;;;;28.50;99.90;;;;;;5031532;28;20606;-59
2022/10/10 11:56:08;;;;;;;;;;;28.60;99.90;;;;;;5031491;28;19909;-58
2022/10/10 11:58:41;;;;;;;;;;;28.60;99.90;;;;;;5030789;28;19912;-58
2022/10/10 12:01:22;;;;;;;;;;;28.60;99.90;;;;;;5031538;28;20387;-59
2022/10/10 12:03:56;;;;;;;;;;;28.60;99.90;;;;;;5031401;28;19996;-57
2022/10/10 12:06:43;;;;;;;;;;;28.60;99.90;;;;;;5031282;28;19909;-58
2022/10/10 12:09:22;;;;;;;;;;;28.60;99.90;;;;;;5031469;28;19928;-59
2022/10/10 12:12:03;;;;;;;;;;;28.70;99.90;;;;;;5031146;28;19905;-57
2022/10/10 12:14:30;;;;;;;;;;;28.70;99.90;;;;;;5031327;28;19959;-59
2022/10/10 12:16:56;;;;;;;;;;;28.80;99.90;;;;;;5031298;28;19912;-59
2022/10/10 12:19:23;;;;;;;;;;;28.80;99.90;;;;;;5031453;28;19905;-59
2022/10/10 12:22:04;;;;;;;;;;;28.80;99.90;;;;;;5031249;28;20324;-59
2022/10/10 12:24:33;;;;;;;;;;;28.80;99.90;;;;;;5031151;28;19951;-60
2022/10/10 12:26:59;;;;;;;;;;;28.80;99.90;;;;;;5031106;28;19912;-58
2022/10/10 12:29:43;;;;;;;;;;;28.90;99.90;;;;;;5031220;28;19905;-58
2022/10/10 12:32:16;;;;;;;;;;;28.90;99.90;;;;;;5031334;28;19992;-60
2022/10/10 12:34:54;;;;;;;;;;;29.00;99.90;;;;;;5031325;28;19905;-58
2022/10/10 12:37:28;;;;;;;;;;;29.00;99.90;;;;;;5030938;28;20402;-58
2022/10/10 12:40:15;;;;;;;;;;;29.00;99.90;;;;;;5031169;28;19905;-59
2022/10/10 12:42:47;;;;;;;;;;;29.10;99.90;;;;;;5031245;28;19932;-58
2022/10/10 12:45:28;;;;;;;;;;;29.10;99.90;;;;;;5031271;28;19912;-58
2022/10/10 12:48:04;;;;;;;;;;;29.10;99.90;;;;;;5031031;28;19911;-58
2022/10/10 12:50:34;;;;;;;;;;;29.20;99.90;;;;;;5031074;28;20260;-58
2022/10/10 12:53:25;;;;;;;;;;;29.20;99.90;;;;;;5030849;28;20379;-58
2022/10/10 12:55:59;;;;;;;;;;;29.20;99.90;;;;;;5029670;28;19951;-58
2022/10/10 12:58:46;;;;;;;;;;;29.20;99.90;;;;;;5030888;28;19905;-58
2022/10/10 13:01:23;;;;;;;;;;;29.20;99.90;;;;;;5030889;28;19970;-58
2022/10/10 13:03:50;;;;;;;;;;;29.20;99.90;;;;;;5030850;28;20008;-58
2022/10/10 13:06:32;;;;;;;;;;;29.20;99.90;;;;;;5030795;28;19905;-59
2022/10/10 13:09:00;;;;;;;;;;;29.20;99.90;;;;;;5030929;28;20004;-58
2022/10/10 13:11:25;;;;;;;;;;;29.20;99.90;;;;;;5033829;28;20420;-59
2022/10/10 13:13:52;;;;;;;;;;;29.20;99.90;;;;;;5034565;28;20004;-59
2022/10/10 13:16:19;;;;;;;;;;;29.20;99.90;;;;;;5034619;28;20106;-59
2022/10/10 13:18:48;;;;;;;;;;;29.20;99.90;;;;;;5034450;28;19909;-59
2022/10/10 13:21:16;;;;;;;;;;;29.20;99.90;;;;;;5034713;28;19936;-58
2022/10/10 13:23:44;;;;;;;;;;;29.20;99.90;;;;;;5034868;28;19912;-58
2022/10/10 13:26:23;;;;;;;;;;;29.20;99.90;;;;;;5034345;28;19905;-58
2022/10/10 13:28:50;;;;;;;;;;;29.20;99.90;;;;;;5032958;28;20279;-57
2022/10/10 13:31:16;;;;;;;;;;;29.20;99.90;;;;;;5034423;28;20007;-59
2022/10/10 13:33:41;;;;;;;;;;;29.10;99.90;;;;;;5034250;28;20004;-58
2022/10/10 13:36:15;;;;;;;;;;;29.10;99.90;;;;;;5034116;28;19909;-58
2022/10/10 13:38:41;;;;;;;;;;;29.10;99.90;;;;;;5034280;28;19916;-58
2022/10/10 13:41:07;;;;;;;;;;;29.10;99.90;;;;;;5034090;28;19909;-59
2022/10/10 13:43:33;;;;;;;;;;;29.10;99.90;;;;;;5033847;28;19944;-59
2022/10/10 13:46:00;;;;;;;;;;;29.10;99.90;;;;;;5033916;28;19912;-58
2022/10/10 13:48:27;;;;;;;;;;;29.10;99.90;;;;;;5033965;28;20288;-58
2022/10/10 13:50:54;;;;;;;;;;;29.10;99.90;;;;;;5033917;28;20003;-58
2022/10/10 13:53:40;;;;;;;;;;;29.10;99.90;;;;;;5033705;28;19917;-60
2022/10/10 13:56:11;;;;;;;;;;;29.10;99.90;;;;;;5029801;28;19912;-58
2022/10/10 13:58:50;;;;;;;;;;;29.10;99.90;;;;;;5033770;28;19912;-58
2022/10/10 14:01:30;;;;;;;;;;;29.10;99.90;;;;;;5033742;28;19921;-59
2022/10/10 14:04:01;;;;;;;;;;;29.10;99.90;;;;;;5033653;28;19909;-58
2022/10/10 14:06:27;;;;;;;;;;;29.10;99.90;;;;;;5033528;28;19905;-57
2022/10/10 14:08:54;;;;;;;;;;;29.10;99.90;;;;;;5033492;28;20356;-59
2022/10/10 14:11:21;;;;;;;;;;;29.10;99.90;;;;;;5033361;28;19909;-59
2022/10/10 14:13:51;;;;;;;;;;;29.10;99.90;;;;;;5033608;28;19913;-58
2022/10/10 14:16:17;;;;;;;;;;;29.20;99.90;;;;;;5033665;28;19905;-59
2022/10/10 14:18:43;;;;;;;;;;;29.20;99.90;;;;;;5033431;28;19912;-58
2022/10/10 14:21:08;;;;;;;;;;;29.20;99.90;;;;;;5032825;28;19912;-58
2022/10/10 14:23:35;;;;;;;;;;;29.20;99.90;;;;;;5033069;28;19936;-58
2022/10/10 14:26:02;;;;;;;;;;;29.20;99.90;;;;;;5033279;28;19932;-58